Portada
METAR-TAF:

METAR-TAF

Aeroports :

Rock Hill/York County Airport (Bryant Field)

Rock Hill, Carolina del Sud, Estats Units d'Amèrica

latitud: 34-59-02N, longitud: 081-03-21W, altitud: 204 m

Observació

L'informe es va fer fa 25 minuts, a les 21:54 UTC
Vent 9 kt del Oest
Temperatura 24°C
Humitat 83%
Pressió 1019 hPa
Visibilitat: 16.1 km
Escasses núvols a una alçada de 4100 ft
Núvols disperses a una alçada de 5500 ft
Núvols disperses a una alçada de 7000 ft

METAR: KUZA 242154Z AUTO 28009KT 10SM FEW041 SCT055 SCT070 24/21 A3010 RMK AO2 LTG DSNT ALQDS RAE04 PRESRR SLP183 P0000 T02390211

Hora: 18:19 (22:19 UTC)


TAF: manca

Observacions i pronòstics meteorològics de més de 4000 aeroports (METAR i TAF).

Les estacions disponibles són els punts grocs i vermells al mapa.

Posi el ratolí al punt desitjat per veure el nom de l'estació.

Feu clic per veure les observacions i els pronòstics meteorològics.

Per canviar el mapa: feu clic els botons verds amb una creu de color negre per apropar; al botó verd amb un guió per allunyar la imatge; o en les fletxes verdes per a mapes adjacents.


METAR-TAF: